Weather at Tuirial Airfield

Public forecast

Using degrees Celsius for public forecast. Weather courtesy of forecast.io.

Closest aviation weather report (METAR) to Tuirial Airfield

Report is more than 6 hours old.

Closest report is Lengpui Airport, 11.6 nm (21.5 km) WNW. Retrieved 2020/10/28 09:00 UTC (7 hours ago):

VELP 280900Z 02004KT 4000 HZ SCT018 SCT025 30/25 Q1009 NOSIG

Closest aviation forecast (TAF) to Tuirial Airfield

Closest forecast is Silchar Airport, 70.9 nm (131.3 km) N. Retrieved 2020/10/28 12:30 UTC (4 hours ago):

TAF VEKU 280930Z 2812/2824 07005KT 6000 SCT030 TEMPO 2820/2824 FEW025 SCT100